sensor_id;sensor_type;location;lat;lon;timestamp;P1;durP1;ratioP1;P2;durP2;ratioP2
8640;SDS011;4358;42.100;25.222;2022-09-09T00:01:47;2.93;;;1.77;;
8640;SDS011;4358;42.100;25.222;2022-09-09T00:04:21;1.20;;;1.10;;
8640;SDS011;4358;42.100;25.222;2022-09-09T00:06:59;1.50;;;1.40;;
8640;SDS011;4358;42.100;25.222;2022-09-09T00:09:31;1.90;;;1.37;;
8640;SDS011;4358;42.100;25.222;2022-09-09T00:12:09;2.73;;;1.30;;
8640;SDS011;4358;42.100;25.222;2022-09-09T00:14:40;2.73;;;1.70;;
8640;SDS011;4358;42.100;25.222;2022-09-09T00:17:14;1.30;;;1.20;;
8640;SDS011;4358;42.100;25.222;2022-09-09T00:19:52;2.83;;;1.40;;
8640;SDS011;4358;42.100;25.222;2022-09-09T00:22:23;3.00;;;1.17;;
8640;SDS011;4358;42.100;25.222;2022-09-09T00:24:54;1.60;;;1.50;;
8640;SDS011;4358;42.100;25.222;2022-09-09T00:27:25;2.00;;;1.33;;
8640;SDS011;4358;42.100;25.222;2022-09-09T00:29:58;2.90;;;1.57;;
8640;SDS011;4358;42.100;25.222;2022-09-09T00:32:39;2.20;;;1.57;;
8640;SDS011;4358;42.100;25.222;2022-09-09T00:35:12;2.97;;;1.90;;
8640;SDS011;4358;42.100;25.222;2022-09-09T00:37:44;1.93;;;1.60;;
8640;SDS011;4358;42.100;25.222;2022-09-09T00:40:18;2.03;;;1.50;;
8640;SDS011;4358;42.100;25.222;2022-09-09T00:42:52;2.63;;;1.40;;
8640;SDS011;4358;42.100;25.222;2022-09-09T00:45:37;1.40;;;1.30;;
8640;SDS011;4358;42.100;25.222;2022-09-09T00:48:24;1.20;;;1.10;;
8640;SDS011;4358;42.100;25.222;2022-09-09T00:50:57;7.80;;;1.60;;
8640;SDS011;4358;42.100;25.222;2022-09-09T00:53:31;2.03;;;1.53;;
8640;SDS011;4358;42.100;25.222;2022-09-09T00:56:08;1.67;;;1.40;;
8640;SDS011;4358;42.100;25.222;2022-09-09T00:58:41;1.77;;;1.60;;
8640;SDS011;4358;42.100;25.222;2022-09-09T01:01:09;3.67;;;1.43;;
8640;SDS011;4358;42.100;25.222;2022-09-09T01:03:38;1.30;;;1.20;;
8640;SDS011;4358;42.100;25.222;2022-09-09T01:06:15;3.77;;;2.20;;
8640;SDS011;4358;42.100;25.222;2022-09-09T01:09:05;3.37;;;2.60;;
8640;SDS011;4358;42.100;25.222;2022-09-09T01:11:42;3.90;;;3.53;;
8640;SDS011;4358;42.100;25.222;2022-09-09T01:14:29;2.53;;;2.23;;
8640;SDS011;4358;42.100;25.222;2022-09-09T01:17:03;2.97;;;1.90;;
8640;SDS011;4358;42.100;25.222;2022-09-09T01:19:37;2.77;;;1.90;;
8640;SDS011;4358;42.100;25.222;2022-09-09T01:22:14;2.83;;;1.43;;
8640;SDS011;4358;42.100;25.222;2022-09-09T01:25:01;2.23;;;1.77;;
8640;SDS011;4358;42.100;25.222;2022-09-09T01:27:41;1.80;;;1.63;;
8640;SDS011;4358;42.100;25.222;2022-09-09T01:30:11;1.90;;;1.50;;
8640;SDS011;4358;42.100;25.222;2022-09-09T01:32:41;3.17;;;1.70;;
8640;SDS011;4358;42.100;25.222;2022-09-09T01:35:10;1.93;;;1.73;;
8640;SDS011;4358;42.100;25.222;2022-09-09T01:37:41;2.10;;;1.87;;
8640;SDS011;4358;42.100;25.222;2022-09-09T01:40:08;1.67;;;1.57;;
8640;SDS011;4358;42.100;25.222;2022-09-09T01:42:35;2.13;;;1.70;;
8640;SDS011;4358;42.100;25.222;2022-09-09T01:45:04;2.00;;;1.60;;
8640;SDS011;4358;42.100;25.222;2022-09-09T01:47:32;1.50;;;1.40;;
8640;SDS011;4358;42.100;25.222;2022-09-09T01:49:58;2.03;;;1.73;;
8640;SDS011;4358;42.100;25.222;2022-09-09T01:52:26;2.00;;;1.80;;
8640;SDS011;4358;42.100;25.222;2022-09-09T01:54:53;2.37;;;1.90;;
8640;SDS011;4358;42.100;25.222;2022-09-09T01:57:21;2.63;;;1.70;;
8640;SDS011;4358;42.100;25.222;2022-09-09T01:59:54;1.70;;;1.60;;
8640;SDS011;4358;42.100;25.222;2022-09-09T02:02:30;2.80;;;1.90;;
8640;SDS011;4358;42.100;25.222;2022-09-09T02:05:01;1.70;;;1.60;;
8640;SDS011;4358;42.100;25.222;2022-09-09T02:07:38;2.57;;;1.67;;
8640;SDS011;4358;42.100;25.222;2022-09-09T02:10:09;2.23;;;2.00;;
8640;SDS011;4358;42.100;25.222;2022-09-09T02:12:39;2.47;;;1.73;;
8640;SDS011;4358;42.100;25.222;2022-09-09T02:15:11;1.50;;;1.40;;
8640;SDS011;4358;42.100;25.222;2022-09-09T02:17:46;4.00;;;1.70;;
8640;SDS011;4358;42.100;25.222;2022-09-09T02:20:15;2.93;;;1.77;;
8640;SDS011;4358;42.100;25.222;2022-09-09T02:22:44;2.43;;;1.47;;
8640;SDS011;4358;42.100;25.222;2022-09-09T02:25:15;2.03;;;1.70;;
8640;SDS011;4358;42.100;25.222;2022-09-09T02:27:46;1.87;;;1.50;;
8640;SDS011;4358;42.100;25.222;2022-09-09T02:30:16;2.07;;;1.50;;
8640;SDS011;4358;42.100;25.222;2022-09-09T02:32:46;1.97;;;1.60;;
8640;SDS011;4358;42.100;25.222;2022-09-09T02:35:18;1.93;;;1.67;;
8640;SDS011;4358;42.100;25.222;2022-09-09T02:37:47;1.97;;;1.53;;
8640;SDS011;4358;42.100;25.222;2022-09-09T02:40:17;2.67;;;1.67;;
8640;SDS011;4358;42.100;25.222;2022-09-09T02:42:46;3.17;;;1.70;;
8640;SDS011;4358;42.100;25.222;2022-09-09T02:45:15;2.57;;;1.90;;
8640;SDS011;4358;42.100;25.222;2022-09-09T02:47:47;1.73;;;1.60;;
8640;SDS011;4358;42.100;25.222;2022-09-09T02:50:22;1.57;;;1.33;;
8640;SDS011;4358;42.100;25.222;2022-09-09T02:52:56;2.07;;;1.40;;
8640;SDS011;4358;42.100;25.222;2022-09-09T02:55:36;2.10;;;1.80;;
8640;SDS011;4358;42.100;25.222;2022-09-09T02:58:05;1.77;;;1.40;;
8640;SDS011;4358;42.100;25.222;2022-09-09T03:00:35;2.73;;;1.70;;
8640;SDS011;4358;42.100;25.222;2022-09-09T03:03:04;3.53;;;2.20;;
8640;SDS011;4358;42.100;25.222;2022-09-09T03:05:31;3.73;;;1.83;;
8640;SDS011;4358;42.100;25.222;2022-09-09T03:07:58;1.83;;;1.63;;
8640;SDS011;4358;42.100;25.222;2022-09-09T03:10:25;2.47;;;1.90;;
8640;SDS011;4358;42.100;25.222;2022-09-09T03:12:52;1.97;;;1.80;;
8640;SDS011;4358;42.100;25.222;2022-09-09T03:15:18;2.73;;;1.67;;
8640;SDS011;4358;42.100;25.222;2022-09-09T03:17:47;1.73;;;1.60;;
8640;SDS011;4358;42.100;25.222;2022-09-09T03:20:15;3.17;;;2.00;;
8640;SDS011;4358;42.100;25.222;2022-09-09T03:22:42;3.60;;;1.97;;
8640;SDS011;4358;42.100;25.222;2022-09-09T03:25:10;2.40;;;2.20;;
8640;SDS011;4358;42.100;25.222;2022-09-09T03:27:36;2.80;;;1.83;;
8640;SDS011;4358;42.100;25.222;2022-09-09T03:30:04;3.33;;;2.30;;
8640;SDS011;4358;42.100;25.222;2022-09-09T03:32:31;3.30;;;2.43;;
8640;SDS011;4358;42.100;25.222;2022-09-09T03:34:58;4.33;;;2.80;;
8640;SDS011;4358;42.100;25.222;2022-09-09T03:37:27;2.60;;;2.37;;
8640;SDS011;4358;42.100;25.222;2022-09-09T03:39:53;3.33;;;2.87;;
8640;SDS011;4358;42.100;25.222;2022-09-09T03:42:20;5.37;;;3.23;;
8640;SDS011;4358;42.100;25.222;2022-09-09T03:44:47;3.33;;;2.83;;
8640;SDS011;4358;42.100;25.222;2022-09-09T03:47:15;3.30;;;2.97;;
8640;SDS011;4358;42.100;25.222;2022-09-09T03:49:43;4.60;;;3.40;;
8640;SDS011;4358;42.100;25.222;2022-09-09T03:52:10;4.27;;;3.27;;
8640;SDS011;4358;42.100;25.222;2022-09-09T03:54:38;6.93;;;3.73;;
8640;SDS011;4358;42.100;25.222;2022-09-09T03:57:08;5.13;;;3.80;;
8640;SDS011;4358;42.100;25.222;2022-09-09T03:59:35;4.30;;;3.53;;
8640;SDS011;4358;42.100;25.222;2022-09-09T04:02:02;4.03;;;3.40;;
8640;SDS011;4358;42.100;25.222;2022-09-09T04:04:29;2.97;;;2.43;;
8640;SDS011;4358;42.100;25.222;2022-09-09T04:06:56;4.53;;;2.30;;
8640;SDS011;4358;42.100;25.222;2022-09-09T04:09:23;3.13;;;2.87;;
8640;SDS011;4358;42.100;25.222;2022-09-09T04:11:51;4.10;;;3.70;;
8640;SDS011;4358;42.100;25.222;2022-09-09T04:14:18;3.23;;;2.93;;
8640;SDS011;4358;42.100;25.222;2022-09-09T04:16:46;3.60;;;3.10;;
8640;SDS011;4358;42.100;25.222;2022-09-09T04:19:13;8.83;;;3.80;;
8640;SDS011;4358;42.100;25.222;2022-09-09T04:21:40;3.13;;;2.77;;
8640;SDS011;4358;42.100;25.222;2022-09-09T04:24:07;4.60;;;3.80;;
8640;SDS011;4358;42.100;25.222;2022-09-09T04:26:35;4.57;;;3.60;;
8640;SDS011;4358;42.100;25.222;2022-09-09T04:29:04;3.43;;;2.80;;
8640;SDS011;4358;42.100;25.222;2022-09-09T04:31:33;9.43;;;4.20;;
8640;SDS011;4358;42.100;25.222;2022-09-09T04:34:00;3.50;;;2.80;;
8640;SDS011;4358;42.100;25.222;2022-09-09T04:36:30;2.73;;;2.53;;
8640;SDS011;4358;42.100;25.222;2022-09-09T04:38:58;3.20;;;2.77;;
8640;SDS011;4358;42.100;25.222;2022-09-09T04:41:25;2.60;;;2.40;;
8640;SDS011;4358;42.100;25.222;2022-09-09T04:43:51;3.40;;;2.70;;
8640;SDS011;4358;42.100;25.222;2022-09-09T04:46:20;2.67;;;2.47;;
8640;SDS011;4358;42.100;25.222;2022-09-09T04:48:48;3.23;;;2.70;;
8640;SDS011;4358;42.100;25.222;2022-09-09T04:51:15;3.20;;;2.77;;
8640;SDS011;4358;42.100;25.222;2022-09-09T04:53:42;9.93;;;2.87;;
8640;SDS011;4358;42.100;25.222;2022-09-09T04:56:10;4.43;;;2.97;;
8640;SDS011;4358;42.100;25.222;2022-09-09T04:58:38;8.60;;;2.87;;
8640;SDS011;4358;42.100;25.222;2022-09-09T05:01:07;3.50;;;2.80;;
8640;SDS011;4358;42.100;25.222;2022-09-09T05:03:37;4.20;;;2.63;;
8640;SDS011;4358;42.100;25.222;2022-09-09T05:06:05;4.60;;;2.73;;
8640;SDS011;4358;42.100;25.222;2022-09-09T05:08:33;9.30;;;3.10;;
8640;SDS011;4358;42.100;25.222;2022-09-09T05:11:00;11.57;;;2.90;;
8640;SDS011;4358;42.100;25.222;2022-09-09T05:13:27;11.60;;;3.43;;
8640;SDS011;4358;42.100;25.222;2022-09-09T05:15:57;5.50;;;4.03;;
8640;SDS011;4358;42.100;25.222;2022-09-09T05:18:24;9.83;;;3.53;;
8640;SDS011;4358;42.100;25.222;2022-09-09T05:20:52;7.50;;;2.93;;
8640;SDS011;4358;42.100;25.222;2022-09-09T05:23:19;3.87;;;2.80;;
8640;SDS011;4358;42.100;25.222;2022-09-09T05:25:54;4.63;;;3.20;;
8640;SDS011;4358;42.100;25.222;2022-09-09T05:28:22;4.37;;;3.50;;
8640;SDS011;4358;42.100;25.222;2022-09-09T05:30:54;3.50;;;3.20;;
8640;SDS011;4358;42.100;25.222;2022-09-09T05:33:22;6.23;;;3.30;;
8640;SDS011;4358;42.100;25.222;2022-09-09T05:35:56;3.57;;;2.80;;
8640;SDS011;4358;42.100;25.222;2022-09-09T05:38:23;7.37;;;3.43;;
8640;SDS011;4358;42.100;25.222;2022-09-09T05:40:50;5.33;;;3.50;;
8640;SDS011;4358;42.100;25.222;2022-09-09T05:43:18;3.70;;;2.93;;
8640;SDS011;4358;42.100;25.222;2022-09-09T05:45:46;4.03;;;2.80;;
8640;SDS011;4358;42.100;25.222;2022-09-09T05:48:13;4.37;;;3.17;;
8640;SDS011;4358;42.100;25.222;2022-09-09T05:50:41;2.87;;;2.67;;
8640;SDS011;4358;42.100;25.222;2022-09-09T05:53:11;4.77;;;3.53;;
8640;SDS011;4358;42.100;25.222;2022-09-09T05:55:38;2.83;;;2.23;;
8640;SDS011;4358;42.100;25.222;2022-09-09T05:58:05;8.73;;;6.20;;
8640;SDS011;4358;42.100;25.222;2022-09-09T06:00:32;10.90;;;8.70;;
8640;SDS011;4358;42.100;25.222;2022-09-09T06:02:59;7.20;;;5.00;;
8640;SDS011;4358;42.100;25.222;2022-09-09T06:05:26;7.47;;;2.70;;
8640;SDS011;4358;42.100;25.222;2022-09-09T06:07:53;2.50;;;1.97;;
8640;SDS011;4358;42.100;25.222;2022-09-09T06:10:22;3.43;;;2.37;;
8640;SDS011;4358;42.100;25.222;2022-09-09T06:12:49;4.40;;;2.13;;
8640;SDS011;4358;42.100;25.222;2022-09-09T06:15:19;5.53;;;2.10;;
8640;SDS011;4358;42.100;25.222;2022-09-09T06:17:45;2.83;;;2.03;;
8640;SDS011;4358;42.100;25.222;2022-09-09T06:20:12;4.80;;;2.10;;
8640;SDS011;4358;42.100;25.222;2022-09-09T06:22:39;3.10;;;2.30;;
8640;SDS011;4358;42.100;25.222;2022-09-09T06:25:08;3.10;;;2.23;;
8640;SDS011;4358;42.100;25.222;2022-09-09T06:27:37;4.80;;;2.60;;
8640;SDS011;4358;42.100;25.222;2022-09-09T06:30:04;9.03;;;6.53;;
8640;SDS011;4358;42.100;25.222;2022-09-09T06:32:32;4.33;;;3.47;;
8640;SDS011;4358;42.100;25.222;2022-09-09T06:35:03;4.73;;;2.50;;
8640;SDS011;4358;42.100;25.222;2022-09-09T06:37:30;3.60;;;2.40;;
8640;SDS011;4358;42.100;25.222;2022-09-09T06:39:57;8.97;;;5.97;;
8640;SDS011;4358;42.100;25.222;2022-09-09T06:42:24;4.10;;;3.40;;
8640;SDS011;4358;42.100;25.222;2022-09-09T06:44:52;3.97;;;2.93;;
8640;SDS011;4358;42.100;25.222;2022-09-09T06:47:19;3.60;;;2.77;;
8640;SDS011;4358;42.100;25.222;2022-09-09T06:49:46;4.53;;;3.27;;
8640;SDS011;4358;42.100;25.222;2022-09-09T06:52:12;5.60;;;4.00;;
8640;SDS011;4358;42.100;25.222;2022-09-09T06:54:39;10.43;;;5.10;;
8640;SDS011;4358;42.100;25.222;2022-09-09T06:57:06;8.30;;;5.40;;
8640;SDS011;4358;42.100;25.222;2022-09-09T06:59:33;4.87;;;3.67;;
8640;SDS011;4358;42.100;25.222;2022-09-09T07:02:01;3.87;;;2.87;;
8640;SDS011;4358;42.100;25.222;2022-09-09T07:04:28;2.70;;;2.03;;
8640;SDS011;4358;42.100;25.222;2022-09-09T07:06:56;3.10;;;2.57;;
8640;SDS011;4358;42.100;25.222;2022-09-09T07:09:24;6.20;;;2.80;;
8640;SDS011;4358;42.100;25.222;2022-09-09T07:11:51;3.00;;;2.37;;
8640;SDS011;4358;42.100;25.222;2022-09-09T07:14:18;2.57;;;2.30;;
8640;SDS011;4358;42.100;25.222;2022-09-09T07:16:46;6.73;;;3.20;;
8640;SDS011;4358;42.100;25.222;2022-09-09T07:19:14;8.33;;;4.73;;
8640;SDS011;4358;42.100;25.222;2022-09-09T07:21:42;4.50;;;3.23;;
8640;SDS011;4358;42.100;25.222;2022-09-09T07:24:09;3.40;;;2.60;;
8640;SDS011;4358;42.100;25.222;2022-09-09T07:26:37;4.53;;;2.57;;
8640;SDS011;4358;42.100;25.222;2022-09-09T07:29:04;2.73;;;2.43;;
8640;SDS011;4358;42.100;25.222;2022-09-09T07:31:32;3.67;;;2.30;;
8640;SDS011;4358;42.100;25.222;2022-09-09T07:34:02;9.97;;;2.67;;
8640;SDS011;4358;42.100;25.222;2022-09-09T07:36:31;3.37;;;2.60;;
8640;SDS011;4358;42.100;25.222;2022-09-09T07:39:00;3.23;;;2.40;;
8640;SDS011;4358;42.100;25.222;2022-09-09T07:41:29;3.60;;;2.30;;
8640;SDS011;4358;42.100;25.222;2022-09-09T07:43:59;5.43;;;2.50;;
8640;SDS011;4358;42.100;25.222;2022-09-09T07:46:30;3.33;;;2.77;;
8640;SDS011;4358;42.100;25.222;2022-09-09T07:48:56;2.57;;;2.37;;
8640;SDS011;4358;42.100;25.222;2022-09-09T07:51:24;2.53;;;2.33;;
8640;SDS011;4358;42.100;25.222;2022-09-09T07:53:55;3.17;;;2.87;;
8640;SDS011;4358;42.100;25.222;2022-09-09T07:56:24;2.70;;;2.50;;
8640;SDS011;4358;42.100;25.222;2022-09-09T07:58:52;3.67;;;2.60;;
8640;SDS011;4358;42.100;25.222;2022-09-09T08:01:22;3.27;;;2.60;;
8640;SDS011;4358;42.100;25.222;2022-09-09T08:03:52;2.90;;;2.37;;
8640;SDS011;4358;42.100;25.222;2022-09-09T08:06:21;2.40;;;2.07;;
8640;SDS011;4358;42.100;25.222;2022-09-09T08:08:50;3.10;;;2.57;;
8640;SDS011;4358;42.100;25.222;2022-09-09T08:11:19;4.53;;;2.47;;
8640;SDS011;4358;42.100;25.222;2022-09-09T08:13:46;4.53;;;2.90;;
8640;SDS011;4358;42.100;25.222;2022-09-09T08:16:14;2.83;;;2.53;;
8640;SDS011;4358;42.100;25.222;2022-09-09T08:18:42;3.00;;;2.63;;
8640;SDS011;4358;42.100;25.222;2022-09-09T08:21:10;3.83;;;2.87;;
8640;SDS011;4358;42.100;25.222;2022-09-09T08:23:38;2.70;;;2.47;;
8640;SDS011;4358;42.100;25.222;2022-09-09T08:26:06;3.10;;;2.80;;
8640;SDS011;4358;42.100;25.222;2022-09-09T08:28:37;2.67;;;2.47;;
8640;SDS011;4358;42.100;25.222;2022-09-09T08:31:05;2.87;;;2.30;;
8640;SDS011;4358;42.100;25.222;2022-09-09T08:33:33;2.90;;;2.60;;
8640;SDS011;4358;42.100;25.222;2022-09-09T08:36:01;3.10;;;2.53;;
8640;SDS011;4358;42.100;25.222;2022-09-09T08:38:28;3.43;;;2.93;;
8640;SDS011;4358;42.100;25.222;2022-09-09T08:40:57;2.53;;;2.33;;
8640;SDS011;4358;42.100;25.222;2022-09-09T08:43:31;2.87;;;2.50;;
8640;SDS011;4358;42.100;25.222;2022-09-09T08:46:02;4.60;;;2.80;;
8640;SDS011;4358;42.100;25.222;2022-09-09T08:48:39;3.23;;;2.50;;
8640;SDS011;4358;42.100;25.222;2022-09-09T08:51:15;3.17;;;2.60;;
8640;SDS011;4358;42.100;25.222;2022-09-09T08:53:43;3.30;;;2.87;;
8640;SDS011;4358;42.100;25.222;2022-09-09T08:56:14;3.17;;;2.50;;
8640;SDS011;4358;42.100;25.222;2022-09-09T08:58:45;2.93;;;2.63;;
8640;SDS011;4358;42.100;25.222;2022-09-09T09:04:11;2.93;;;2.67;;
8640;SDS011;4358;42.100;25.222;2022-09-09T09:06:49;3.83;;;3.10;;
8640;SDS011;4358;42.100;25.222;2022-09-09T09:09:26;4.10;;;2.90;;
8640;SDS011;4358;42.100;25.222;2022-09-09T09:12:07;3.50;;;2.83;;
8640;SDS011;4358;42.100;25.222;2022-09-09T09:14:41;2.90;;;2.60;;
8640;SDS011;4358;42.100;25.222;2022-09-09T09:17:12;5.30;;;2.50;;
8640;SDS011;4358;42.100;25.222;2022-09-09T09:19:42;3.70;;;3.10;;
8640;SDS011;4358;42.100;25.222;2022-09-09T09:22:14;4.30;;;2.60;;
8640;SDS011;4358;42.100;25.222;2022-09-09T09:24:46;3.30;;;2.63;;
8640;SDS011;4358;42.100;25.222;2022-09-09T09:27:19;4.87;;;2.67;;
8640;SDS011;4358;42.100;25.222;2022-09-09T09:29:58;4.77;;;3.47;;
8640;SDS011;4358;42.100;25.222;2022-09-09T09:32:30;2.60;;;2.40;;
8640;SDS011;4358;42.100;25.222;2022-09-09T09:35:00;3.73;;;2.97;;
8640;SDS011;4358;42.100;25.222;2022-09-09T09:37:31;3.17;;;2.80;;
8640;SDS011;4358;42.100;25.222;2022-09-09T09:40:08;3.13;;;2.80;;
8640;SDS011;4358;42.100;25.222;2022-09-09T09:42:35;3.40;;;2.57;;
8640;SDS011;4358;42.100;25.222;2022-09-09T09:45:07;3.47;;;2.80;;
8640;SDS011;4358;42.100;25.222;2022-09-09T09:47:43;3.23;;;2.93;;
8640;SDS011;4358;42.100;25.222;2022-09-09T09:50:16;3.10;;;2.70;;
8640;SDS011;4358;42.100;25.222;2022-09-09T09:52:51;3.10;;;2.77;;
8640;SDS011;4358;42.100;25.222;2022-09-09T09:55:21;3.20;;;2.90;;
8640;SDS011;4358;42.100;25.222;2022-09-09T09:57:49;2.70;;;2.50;;
8640;SDS011;4358;42.100;25.222;2022-09-09T10:00:17;4.03;;;3.37;;
8640;SDS011;4358;42.100;25.222;2022-09-09T10:02:47;3.30;;;2.67;;
8640;SDS011;4358;42.100;25.222;2022-09-09T10:05:17;2.90;;;2.70;;
8640;SDS011;4358;42.100;25.222;2022-09-09T10:07:46;3.07;;;2.77;;
8640;SDS011;4358;42.100;25.222;2022-09-09T10:10:15;3.10;;;2.80;;
8640;SDS011;4358;42.100;25.222;2022-09-09T10:12:50;2.87;;;2.57;;
8640;SDS011;4358;42.100;25.222;2022-09-09T10:15:31;2.80;;;2.60;;
8640;SDS011;4358;42.100;25.222;2022-09-09T10:18:12;3.20;;;2.90;;
8640;SDS011;4358;42.100;25.222;2022-09-09T10:20:53;3.23;;;2.93;;
8640;SDS011;4358;42.100;25.222;2022-09-09T10:23:29;3.40;;;3.10;;
8640;SDS011;4358;42.100;25.222;2022-09-09T10:26:16;2.73;;;2.53;;
8640;SDS011;4358;42.100;25.222;2022-09-09T10:29:02;3.27;;;2.97;;
8640;SDS011;4358;42.100;25.222;2022-09-09T10:31:44;4.13;;;2.70;;
8640;SDS011;4358;42.100;25.222;2022-09-09T10:34:30;3.30;;;2.80;;
8640;SDS011;4358;42.100;25.222;2022-09-09T10:37:13;3.63;;;2.47;;
8640;SDS011;4358;42.100;25.222;2022-09-09T10:39:53;2.83;;;2.60;;
8640;SDS011;4358;42.100;25.222;2022-09-09T10:42:29;2.60;;;2.30;;
8640;SDS011;4358;42.100;25.222;2022-09-09T10:45:00;2.88;;;2.58;;
8640;SDS011;4358;42.100;25.222;2022-09-09T10:47:49;2.60;;;2.40;;
8640;SDS011;4358;42.100;25.222;2022-09-09T10:50:35;4.15;;;2.95;;
8640;SDS011;4358;42.100;25.222;2022-09-09T10:53:18;3.00;;;2.70;;
8640;SDS011;4358;42.100;25.222;2022-09-09T10:55:56;3.10;;;2.80;;
8640;SDS011;4358;42.100;25.222;2022-09-09T10:58:28;2.60;;;2.40;;
8640;SDS011;4358;42.100;25.222;2022-09-09T11:01:00;3.33;;;2.90;;
8640;SDS011;4358;42.100;25.222;2022-09-09T11:03:35;2.95;;;2.72;;
8640;SDS011;4358;42.100;25.222;2022-09-09T11:06:09;2.80;;;2.60;;
8640;SDS011;4358;42.100;25.222;2022-09-09T11:08:42;3.20;;;2.70;;
8640;SDS011;4358;42.100;25.222;2022-09-09T11:11:09;5.28;;;2.70;;
8640;SDS011;4358;42.100;25.222;2022-09-09T11:13:42;3.30;;;2.50;;
8640;SDS011;4358;42.100;25.222;2022-09-09T11:16:16;5.82;;;5.03;;
8640;SDS011;4358;42.100;25.222;2022-09-09T11:18:50;3.00;;;2.70;;
8640;SDS011;4358;42.100;25.222;2022-09-09T11:21:26;2.85;;;2.63;;
8640;SDS011;4358;42.100;25.222;2022-09-09T11:23:56;3.60;;;2.92;;
8640;SDS011;4358;42.100;25.222;2022-09-09T11:26:29;2.97;;;2.70;;
8640;SDS011;4358;42.100;25.222;2022-09-09T11:29:06;3.17;;;2.88;;
8640;SDS011;4358;42.100;25.222;2022-09-09T11:31:52;3.20;;;2.90;;
8640;SDS011;4358;42.100;25.222;2022-09-09T11:34:34;3.00;;;2.70;;
8640;SDS011;4358;42.100;25.222;2022-09-09T11:40:17;3.00;;;2.70;;
8640;SDS011;4358;42.100;25.222;2022-09-09T11:42:47;6.85;;;2.67;;
8640;SDS011;4358;42.100;25.222;2022-09-09T11:45:20;4.07;;;3.45;;
8640;SDS011;4358;42.100;25.222;2022-09-09T11:47:51;3.20;;;2.63;;
8640;SDS011;4358;42.100;25.222;2022-09-09T11:50:27;3.00;;;2.70;;
8640;SDS011;4358;42.100;25.222;2022-09-09T11:53:19;2.97;;;2.67;;
8640;SDS011;4358;42.100;25.222;2022-09-09T11:56:00;2.75;;;2.53;;
8640;SDS011;4358;42.100;25.222;2022-09-09T11:58:53;2.83;;;2.55;;
8640;SDS011;4358;42.100;25.222;2022-09-09T12:01:35;4.20;;;2.58;;
8640;SDS011;4358;42.100;25.222;2022-09-09T12:04:11;3.65;;;2.50;;
8640;SDS011;4358;42.100;25.222;2022-09-09T12:06:58;2.30;;;2.10;;
8640;SDS011;4358;42.100;25.222;2022-09-09T12:09:32;2.70;;;2.30;;
8640;SDS011;4358;42.100;25.222;2022-09-09T12:12:21;3.00;;;2.55;;
8640;SDS011;4358;42.100;25.222;2022-09-09T12:15:17;2.58;;;2.38;;
8640;SDS011;4358;42.100;25.222;2022-09-09T12:17:54;2.20;;;2.00;;
8640;SDS011;4358;42.100;25.222;2022-09-09T12:20:23;2.65;;;2.45;;
8640;SDS011;4358;42.100;25.222;2022-09-09T12:23:04;2.72;;;2.22;;
8640;SDS011;4358;42.100;25.222;2022-09-09T12:25:57;2.53;;;2.28;;
8640;SDS011;4358;42.100;25.222;2022-09-09T12:28:36;2.50;;;2.30;;
8640;SDS011;4358;42.100;25.222;2022-09-09T12:31:10;2.15;;;1.88;;
8640;SDS011;4358;42.100;25.222;2022-09-09T12:33:43;2.55;;;2.20;;
8640;SDS011;4358;42.100;25.222;2022-09-09T12:36:14;3.35;;;3.00;;
8640;SDS011;4358;42.100;25.222;2022-09-09T12:38:44;2.22;;;2.03;;
8640;SDS011;4358;42.100;25.222;2022-09-09T12:41:18;3.65;;;2.30;;
8640;SDS011;4358;42.100;25.222;2022-09-09T12:43:48;3.53;;;2.50;;
8640;SDS011;4358;42.100;25.222;2022-09-09T12:46:20;4.05;;;2.25;;
8640;SDS011;4358;42.100;25.222;2022-09-09T12:48:52;3.45;;;2.70;;
8640;SDS011;4358;42.100;25.222;2022-09-09T12:51:22;2.03;;;1.88;;
8640;SDS011;4358;42.100;25.222;2022-09-09T12:53:52;2.13;;;1.85;;
8640;SDS011;4358;42.100;25.222;2022-09-09T12:56:20;2.80;;;2.13;;
8640;SDS011;4358;42.100;25.222;2022-09-09T12:58:51;2.67;;;2.40;;
8640;SDS011;4358;42.100;25.222;2022-09-09T13:01:21;2.88;;;1.90;;
8640;SDS011;4358;42.100;25.222;2022-09-09T13:03:49;2.45;;;2.10;;
8640;SDS011;4358;42.100;25.222;2022-09-09T13:06:19;2.85;;;2.38;;
8640;SDS011;4358;42.100;25.222;2022-09-09T13:08:48;3.08;;;2.15;;
8640;SDS011;4358;42.100;25.222;2022-09-09T13:11:15;2.58;;;2.00;;
8640;SDS011;4358;42.100;25.222;2022-09-09T13:13:50;2.25;;;1.95;;
8640;SDS011;4358;42.100;25.222;2022-09-09T13:16:21;2.20;;;2.00;;
8640;SDS011;4358;42.100;25.222;2022-09-09T13:18:51;2.25;;;2.05;;
8640;SDS011;4358;42.100;25.222;2022-09-09T13:21:18;2.00;;;1.83;;
8640;SDS011;4358;42.100;25.222;2022-09-09T13:23:48;2.72;;;2.40;;
8640;SDS011;4358;42.100;25.222;2022-09-09T13:26:21;2.03;;;1.83;;
8640;SDS011;4358;42.100;25.222;2022-09-09T13:28:50;3.60;;;2.40;;
8640;SDS011;4358;42.100;25.222;2022-09-09T13:31:22;2.15;;;1.80;;
8640;SDS011;4358;42.100;25.222;2022-09-09T13:33:52;2.63;;;2.00;;
8640;SDS011;4358;42.100;25.222;2022-09-09T13:36:27;3.20;;;2.20;;
8640;SDS011;4358;42.100;25.222;2022-09-09T13:38:57;2.92;;;2.50;;
8640;SDS011;4358;42.100;25.222;2022-09-09T13:41:27;3.47;;;2.40;;
8640;SDS011;4358;42.100;25.222;2022-09-09T13:43:56;4.65;;;2.33;;
8640;SDS011;4358;42.100;25.222;2022-09-09T13:46:30;3.70;;;2.20;;
8640;SDS011;4358;42.100;25.222;2022-09-09T13:49:00;2.08;;;1.92;;
8640;SDS011;4358;42.100;25.222;2022-09-09T13:51:32;5.65;;;2.22;;
8640;SDS011;4358;42.100;25.222;2022-09-09T13:54:02;2.00;;;1.73;;
8640;SDS011;4358;42.100;25.222;2022-09-09T13:56:29;3.67;;;2.10;;
8640;SDS011;4358;42.100;25.222;2022-09-09T13:58:56;2.05;;;1.85;;
8640;SDS011;4358;42.100;25.222;2022-09-09T14:01:24;2.10;;;1.90;;
8640;SDS011;4358;42.100;25.222;2022-09-09T14:03:52;1.98;;;1.77;;
8640;SDS011;4358;42.100;25.222;2022-09-09T14:06:18;4.32;;;1.80;;
8640;SDS011;4358;42.100;25.222;2022-09-09T14:08:47;2.22;;;2.00;;
8640;SDS011;4358;42.100;25.222;2022-09-09T14:11:15;1.95;;;1.80;;
8640;SDS011;4358;42.100;25.222;2022-09-09T14:13:43;2.30;;;2.10;;
8640;SDS011;4358;42.100;25.222;2022-09-09T14:16:10;1.67;;;1.55;;
8640;SDS011;4358;42.100;25.222;2022-09-09T14:18:36;4.38;;;1.83;;
8640;SDS011;4358;42.100;25.222;2022-09-09T14:21:05;1.83;;;1.63;;
8640;SDS011;4358;42.100;25.222;2022-09-09T14:23:34;1.77;;;1.63;;
8640;SDS011;4358;42.100;25.222;2022-09-09T14:26:01;2.47;;;1.60;;
8640;SDS011;4358;42.100;25.222;2022-09-09T14:28:28;2.10;;;1.77;;
8640;SDS011;4358;42.100;25.222;2022-09-09T14:30:54;2.28;;;1.73;;
8640;SDS011;4358;42.100;25.222;2022-09-09T14:33:25;2.45;;;2.10;;
8640;SDS011;4358;42.100;25.222;2022-09-09T14:35:55;2.72;;;1.70;;
8640;SDS011;4358;42.100;25.222;2022-09-09T14:38:23;4.47;;;2.53;;
8640;SDS011;4358;42.100;25.222;2022-09-09T14:40:50;3.17;;;2.63;;
8640;SDS011;4358;42.100;25.222;2022-09-09T14:43:17;4.00;;;2.65;;
8640;SDS011;4358;42.100;25.222;2022-09-09T14:45:45;3.92;;;2.53;;
8640;SDS011;4358;42.100;25.222;2022-09-09T14:48:13;3.20;;;2.75;;
8640;SDS011;4358;42.100;25.222;2022-09-09T14:50:40;3.15;;;2.70;;
8640;SDS011;4358;42.100;25.222;2022-09-09T14:53:06;2.95;;;2.70;;
8640;SDS011;4358;42.100;25.222;2022-09-09T14:55:35;3.10;;;2.80;;
8640;SDS011;4358;42.100;25.222;2022-09-09T14:58:04;3.08;;;2.78;;
8640;SDS011;4358;42.100;25.222;2022-09-09T15:00:31;3.17;;;2.88;;
8640;SDS011;4358;42.100;25.222;2022-09-09T15:02:59;3.95;;;3.55;;
8640;SDS011;4358;42.100;25.222;2022-09-09T15:05:26;5.68;;;3.05;;
8640;SDS011;4358;42.100;25.222;2022-09-09T15:07:53;3.58;;;3.08;;
8640;SDS011;4358;42.100;25.222;2022-09-09T15:10:20;3.83;;;2.80;;
8640;SDS011;4358;42.100;25.222;2022-09-09T15:12:48;3.47;;;3.00;;
8640;SDS011;4358;42.100;25.222;2022-09-09T15:15:15;4.57;;;2.85;;
8640;SDS011;4358;42.100;25.222;2022-09-09T15:17:42;3.83;;;3.00;;
8640;SDS011;4358;42.100;25.222;2022-09-09T15:20:09;3.15;;;2.85;;
8640;SDS011;4358;42.100;25.222;2022-09-09T15:22:36;3.28;;;2.97;;
8640;SDS011;4358;42.100;25.222;2022-09-09T15:25:03;3.20;;;2.88;;
8640;SDS011;4358;42.100;25.222;2022-09-09T15:27:32;3.37;;;3.07;;
8640;SDS011;4358;42.100;25.222;2022-09-09T15:30:01;3.33;;;2.87;;